Time;durP1;ratioP1;P1;durP2;ratioP2;P2;SDS_P1;SDS_P2;PMS_P1;PMS_P2;Temp;Humidity;BMP_temperature;BMP_pressure;BME280_temperature;BME280_humidity;BME280_pressure;Samples;Min_cycle;Max_cycle;Signal;HPM_P1;HPM_P2
2021/10/20 00:01:39;;;;;;;7.35;5.82;;;14.40;99.90;;;;;;4980257;28;20195;-76
2021/10/20 00:04:06;;;;;;;7.57;5.90;;;14.30;99.90;;;;;;4980683;28;20203;-77
2021/10/20 00:06:32;;;;;;;7.03;5.32;;;14.30;99.90;;;;;;4982228;28;20902;-77
2021/10/20 00:08:58;;;;;;;5.68;4.97;;;14.20;99.90;;;;;;4980886;28;20185;-77
2021/10/20 00:11:24;;;;;;;5.50;5.00;;;14.10;99.90;;;;;;4980203;28;20183;-76
2021/10/20 00:13:50;;;;;;;7.93;5.88;;;14.00;99.90;;;;;;4981566;28;20180;-77
2021/10/20 00:16:17;;;;;;;5.85;5.28;;;14.00;99.90;;;;;;4979993;28;20233;-75
2021/10/20 00:18:48;;;;;;;6.97;5.38;;;14.00;99.90;;;;;;4980983;28;20586;-77
2021/10/20 00:21:25;;;;;;;6.28;5.68;;;14.00;99.90;;;;;;4980808;28;20191;-76
2021/10/20 00:23:51;;;;;;;6.43;5.15;;;13.90;99.90;;;;;;4980856;28;20326;-77
2021/10/20 00:26:17;;;;;;;5.22;4.60;;;14.00;99.90;;;;;;4981271;28;20204;-77
2021/10/20 00:28:42;;;;;;;5.90;5.28;;;13.90;99.90;;;;;;4981255;28;20177;-77
2021/10/20 00:31:08;;;;;;;6.00;4.90;;;14.10;99.90;;;;;;4980908;28;20184;-77
2021/10/20 00:33:34;;;;;;;4.57;4.10;;;14.20;99.90;;;;;;4995641;28;20666;-76
2021/10/20 00:35:59;;;;;;;5.47;4.63;;;14.30;99.90;;;;;;4980645;28;20207;-77
2021/10/20 00:38:25;;;;;;;7.25;4.93;;;14.20;99.90;;;;;;4980603;28;20321;-77
2021/10/20 00:40:52;;;;;;;5.55;5.05;;;14.40;99.90;;;;;;4978794;28;20243;-76
2021/10/20 00:43:19;;;;;;;5.45;4.72;;;14.30;99.90;;;;;;4980807;28;20729;-76
2021/10/20 00:45:45;;;;;;;4.63;4.20;;;14.30;99.90;;;;;;4980517;28;20227;-77
2021/10/20 00:48:10;;;;;;;6.03;4.75;;;14.20;99.90;;;;;;4980847;28;20190;-77
2021/10/20 00:50:36;;;;;;;6.53;4.18;;;14.20;99.90;;;;;;4980728;28;20188;-76
2021/10/20 00:53:02;;;;;;;5.43;4.32;;;14.10;99.90;;;;;;4980912;28;20318;-77
2021/10/20 00:55:28;;;;;;;4.80;4.30;;;14.10;99.90;;;;;;4980878;28;20195;-77
2021/10/20 00:57:53;;;;;;;5.45;4.95;;;14.00;99.90;;;;;;4980922;28;20192;-76
2021/10/20 01:00:19;;;;;;;4.90;4.30;;;13.90;99.90;;;;;;4980733;28;20216;-76
2021/10/20 01:02:46;;;;;;;5.13;4.05;;;13.90;99.90;;;;;;4980724;28;20284;-76
2021/10/20 01:05:13;;;;;;;5.45;4.07;;;13.90;99.90;;;;;;4980550;28;20211;-77
2021/10/20 01:07:39;;;;;;;4.85;3.97;;;13.90;99.90;;;;;;4996295;28;20208;-76
2021/10/20 01:10:05;;;;;;;4.75;4.30;;;13.90;99.90;;;;;;4980260;28;20235;-77
2021/10/20 01:12:34;;;;;;;4.45;3.97;;;13.80;99.90;;;;;;4980377;28;20184;-76
2021/10/20 01:14:59;;;;;;;6.63;4.55;;;13.70;99.90;;;;;;4980734;28;20190;-77
2021/10/20 01:17:25;;;;;;;6.07;4.15;;;13.60;99.90;;;;;;4981132;28;20208;-76
2021/10/20 01:19:51;;;;;;;5.15;4.40;;;13.60;99.90;;;;;;4980044;28;20211;-75
2021/10/20 01:22:17;;;;;;;5.00;4.38;;;13.50;99.90;;;;;;4981520;28;20184;-76
2021/10/20 01:24:43;;;;;;;5.30;4.38;;;13.40;99.90;;;;;;4980613;28;20722;-76
2021/10/20 01:27:09;;;;;;;5.43;3.83;;;13.30;99.90;;;;;;4980774;28;20215;-77
2021/10/20 01:29:35;;;;;;;5.22;4.38;;;13.30;99.90;;;;;;4979191;28;20192;-77
2021/10/20 01:32:05;;;;;;;7.10;4.47;;;13.20;99.90;;;;;;4980492;28;20242;-76
2021/10/20 01:34:31;;;;;;;6.15;4.28;;;13.20;99.90;;;;;;4981136;28;20214;-77
2021/10/20 01:37:00;;;;;;;5.78;4.50;;;13.20;99.90;;;;;;4980741;28;20207;-77
2021/10/20 01:39:26;;;;;;;5.00;4.40;;;13.10;99.90;;;;;;4979249;28;20203;-75
2021/10/20 01:41:52;;;;;;;6.38;4.57;;;13.10;99.90;;;;;;4980027;28;20184;-77
2021/10/20 01:44:17;;;;;;;5.78;4.57;;;13.00;99.90;;;;;;4979918;28;21169;-76
2021/10/20 01:46:43;;;;;;;4.40;4.00;;;13.10;99.90;;;;;;4980415;28;20442;-77
2021/10/20 01:49:09;;;;;;;5.32;4.22;;;13.10;99.90;;;;;;4980694;28;20207;-77
2021/10/20 01:51:35;;;;;;;4.70;4.05;;;13.10;99.90;;;;;;4979595;28;20267;-76
2021/10/20 01:54:00;;;;;;;4.63;3.90;;;13.00;99.90;;;;;;4981019;28;20647;-76
2021/10/20 01:56:26;;;;;;;5.53;4.15;;;13.00;99.90;;;;;;4979988;28;20289;-75
2021/10/20 01:58:51;;;;;;;5.18;4.68;;;12.90;99.90;;;;;;4979830;28;20812;-77
2021/10/20 02:01:17;;;;;;;4.75;3.97;;;12.90;99.90;;;;;;4982557;28;20195;-76
2021/10/20 02:03:45;;;;;;;5.65;4.05;;;12.80;99.90;;;;;;4983920;28;20203;-76
2021/10/20 02:06:14;;;;;;;6.00;4.40;;;12.80;99.90;;;;;;4982333;28;20208;-75
2021/10/20 02:08:41;;;;;;;4.32;3.90;;;12.80;99.90;;;;;;4983739;28;20180;-76
2021/10/20 02:11:07;;;;;;;4.18;3.63;;;12.70;99.90;;;;;;4983642;28;20188;-77
2021/10/20 02:13:34;;;;;;;4.55;3.95;;;12.70;99.90;;;;;;4982326;28;20283;-77
2021/10/20 02:16:00;;;;;;;4.75;3.78;;;12.70;99.90;;;;;;4983036;28;20204;-76
2021/10/20 02:18:26;;;;;;;4.65;4.15;;;12.70;99.90;;;;;;4982138;28;20203;-77
2021/10/20 02:20:52;;;;;;;4.20;3.80;;;12.70;99.90;;;;;;4983267;28;20764;-76
2021/10/20 02:23:19;;;;;;;4.30;3.90;;;12.60;99.90;;;;;;4983383;28;20267;-76
2021/10/20 02:25:45;;;;;;;4.38;3.97;;;12.70;99.90;;;;;;4983089;28;20254;-77
2021/10/20 02:28:11;;;;;;;4.68;4.20;;;12.70;99.90;;;;;;4983801;28;20204;-79
2021/10/20 02:30:37;;;;;;;5.82;4.18;;;12.70;99.90;;;;;;4983819;28;20242;-79
2021/10/20 02:33:03;;;;;;;5.53;4.25;;;12.80;99.90;;;;;;4983065;28;20622;-77
2021/10/20 02:35:29;;;;;;;3.88;3.42;;;12.80;99.90;;;;;;4982661;28;20613;-75
2021/10/20 02:37:54;;;;;;;4.72;4.20;;;12.70;99.90;;;;;;4983345;28;20188;-76
2021/10/20 02:40:20;;;;;;;6.28;3.72;;;12.60;99.90;;;;;;4982615;28;20204;-76
2021/10/20 02:42:46;;;;;;;4.25;3.80;;;12.60;99.90;;;;;;4982951;28;20851;-77
2021/10/20 02:45:15;;;;;;;3.78;3.42;;;12.50;99.90;;;;;;4982272;28;20200;-76
2021/10/20 02:47:41;;;;;;;3.55;3.25;;;12.60;99.90;;;;;;4982398;28;21187;-77
2021/10/20 02:50:07;;;;;;;4.05;3.38;;;12.80;99.90;;;;;;4981391;28;20191;-76
2021/10/20 02:52:33;;;;;;;4.05;3.65;;;12.90;99.90;;;;;;4982627;28;20194;-77
2021/10/20 02:54:58;;;;;;;6.70;3.47;;;12.90;99.90;;;;;;4982623;28;20176;-77
2021/10/20 02:57:24;;;;;;;5.22;3.33;;;13.00;99.90;;;;;;4982427;28;20212;-77
2021/10/20 02:59:51;;;;;;;4.13;3.35;;;13.10;99.90;;;;;;4982367;28;20238;-76
2021/10/20 03:02:17;;;;;;;4.55;3.20;;;13.20;99.90;;;;;;4981991;28;20207;-77
2021/10/20 03:04:43;;;;;;;4.03;3.03;;;13.20;99.90;;;;;;4982005;28;20268;-75
2021/10/20 03:07:08;;;;;;;3.25;2.92;;;13.30;99.90;;;;;;4982101;28;20286;-76
2021/10/20 03:09:34;;;;;;;3.40;3.10;;;13.50;99.90;;;;;;4981846;28;20188;-77
2021/10/20 03:12:00;;;;;;;4.00;2.83;;;13.40;99.90;;;;;;4982094;28;20180;-77
2021/10/20 03:14:25;;;;;;;3.42;2.90;;;13.40;99.90;;;;;;4982316;28;20256;-76
2021/10/20 03:16:51;;;;;;;3.38;2.95;;;13.40;99.90;;;;;;4982232;28;20211;-77
2021/10/20 03:19:16;;;;;;;4.35;3.10;;;13.30;99.90;;;;;;4982972;28;20232;-76
2021/10/20 03:21:42;;;;;;;5.18;3.45;;;13.30;99.90;;;;;;4981845;28;20242;-77
2021/10/20 03:24:07;;;;;;;3.50;3.05;;;13.30;99.90;;;;;;4982364;28;20184;-76
2021/10/20 03:26:33;;;;;;;3.38;3.08;;;13.30;99.90;;;;;;4981961;28;20200;-76
2021/10/20 03:28:59;;;;;;;4.25;3.10;;;13.20;99.90;;;;;;4978774;28;20276;-77
2021/10/20 03:31:25;;;;;;;3.15;2.85;;;13.10;99.90;;;;;;4980521;28;20184;-75
2021/10/20 03:33:51;;;;;;;4.60;3.30;;;13.00;99.90;;;;;;4979993;28;20180;-76
2021/10/20 03:36:16;;;;;;;3.72;2.97;;;12.90;99.90;;;;;;4984224;28;20714;-76
2021/10/20 03:38:42;;;;;;;3.42;3.13;;;12.80;99.90;;;;;;4986833;28;20180;-76
2021/10/20 03:41:07;;;;;;;4.47;3.33;;;12.80;99.90;;;;;;4985824;28;20216;-75
2021/10/20 03:43:33;;;;;;;4.50;3.10;;;12.70;99.90;;;;;;4984959;28;20195;-77
2021/10/20 03:45:59;;;;;;;3.47;3.17;;;12.60;99.90;;;;;;4984450;28;20739;-75
2021/10/20 03:48:24;;;;;;;4.13;3.22;;;12.50;99.90;;;;;;4986021;28;20275;-76
2021/10/20 03:50:50;;;;;;;3.30;3.00;;;12.50;99.90;;;;;;4984036;28;20192;-77
2021/10/20 03:53:15;;;;;;;3.60;3.15;;;12.40;99.90;;;;;;4986632;28;20181;-75
2021/10/20 03:55:41;;;;;;;4.35;3.40;;;12.40;99.90;;;;;;4983957;28;20215;-76
2021/10/20 03:58:07;;;;;;;3.50;3.03;;;12.50;99.90;;;;;;4983019;28;20184;-76
2021/10/20 04:00:32;;;;;;;3.50;3.20;;;12.60;99.90;;;;;;4985261;28;20690;-76
2021/10/20 04:02:58;;;;;;;3.92;3.00;;;12.50;99.90;;;;;;4984940;28;20238;-76
2021/10/20 04:05:23;;;;;;;4.22;3.00;;;12.60;99.90;;;;;;4986071;28;20231;-76
2021/10/20 04:07:50;;;;;;;3.78;3.13;;;12.60;99.90;;;;;;4980133;28;20263;-76
2021/10/20 04:10:20;;;;;;;4.30;2.90;;;12.80;99.90;;;;;;4984340;28;20199;-76
2021/10/20 04:12:46;;;;;;;3.80;3.20;;;12.90;99.90;;;;;;4985790;28;20192;-77
2021/10/20 04:15:13;;;;;;;4.85;3.33;;;12.80;99.90;;;;;;4985870;28;20187;-77
2021/10/20 04:17:40;;;;;;;3.90;3.50;;;12.80;99.90;;;;;;4980428;28;20335;-76
2021/10/20 04:20:07;;;;;;;4.10;3.28;;;12.70;99.90;;;;;;4985365;28;20642;-77
2021/10/20 04:22:34;;;;;;;3.95;3.28;;;12.70;99.90;;;;;;4984586;28;20265;-77
2021/10/20 04:25:00;;;;;;;4.80;3.30;;;12.60;99.90;;;;;;4984538;28;20184;-77
2021/10/20 04:27:26;;;;;;;3.90;3.50;;;12.60;99.90;;;;;;4984341;28;20211;-77
2021/10/20 04:29:52;;;;;;;3.70;3.17;;;12.60;99.90;;;;;;4985783;28;20176;-77
2021/10/20 04:32:17;;;;;;;4.15;3.38;;;12.60;99.90;;;;;;4985699;28;20254;-77
2021/10/20 04:34:43;;;;;;;3.63;3.10;;;12.50;99.90;;;;;;4984499;28;20207;-76
2021/10/20 04:37:08;;;;;;;4.20;3.00;;;12.50;99.90;;;;;;4984115;28;20674;-77
2021/10/20 04:39:34;;;;;;;3.55;3.10;;;12.40;99.90;;;;;;4985553;28;20761;-77
2021/10/20 04:41:59;;;;;;;3.78;3.28;;;12.30;99.90;;;;;;4985147;28;20196;-76
2021/10/20 04:44:25;;;;;;;4.15;2.70;;;12.30;99.90;;;;;;4983626;28;20706;-77
2021/10/20 04:46:51;;;;;;;3.20;2.90;;;12.30;99.90;;;;;;4985454;28;20216;-77
2021/10/20 04:49:16;;;;;;;3.85;2.53;;;12.20;99.90;;;;;;4985751;28;20175;-76
2021/10/20 04:51:42;;;;;;;2.83;2.53;;;12.30;99.90;;;;;;4985182;28;20180;-76
2021/10/20 04:54:07;;;;;;;3.25;2.92;;;12.30;99.90;;;;;;4984875;28;20556;-76
2021/10/20 04:56:33;;;;;;;3.10;2.78;;;12.30;99.90;;;;;;4985402;28;20211;-76
2021/10/20 04:58:58;;;;;;;4.22;2.90;;;12.40;99.90;;;;;;4984306;28;20211;-77
2021/10/20 05:01:24;;;;;;;3.88;2.85;;;12.30;99.90;;;;;;4985010;28;20204;-77
2021/10/20 05:03:50;;;;;;;3.40;2.38;;;12.40;99.90;;;;;;4985639;28;20184;-77
2021/10/20 05:06:15;;;;;;;2.53;2.30;;;12.30;99.90;;;;;;4984414;28;20298;-75
2021/10/20 05:08:41;;;;;;;3.15;2.70;;;12.30;99.90;;;;;;4984793;28;20191;-77
2021/10/20 05:11:06;;;;;;;3.30;2.13;;;12.40;99.90;;;;;;4984733;28;20192;-76
2021/10/20 05:13:32;;;;;;;2.95;2.42;;;12.50;99.90;;;;;;4985199;28;20225;-77
2021/10/20 05:15:58;;;;;;;4.57;2.65;;;12.60;99.90;;;;;;4984878;28;20682;-75
2021/10/20 05:18:23;;;;;;;3.28;2.65;;;12.70;99.90;;;;;;4986266;28;20639;-76
2021/10/20 05:20:49;;;;;;;3.55;2.60;;;12.80;99.90;;;;;;4983481;28;20211;-77
2021/10/20 05:23:16;;;;;;;3.15;2.35;;;13.00;99.90;;;;;;4984271;28;20187;-77
2021/10/20 05:25:42;;;;;;;3.90;2.50;;;13.00;99.90;;;;;;5000061;28;20192;-76
2021/10/20 05:28:07;;;;;;;2.28;2.08;;;13.00;99.90;;;;;;4985580;28;20195;-76
2021/10/20 05:30:33;;;;;;;4.32;2.22;;;13.10;99.90;;;;;;4983541;28;20184;-76
2021/10/20 05:33:00;;;;;;;3.05;2.47;;;13.20;99.90;;;;;;4999140;28;20188;-76
2021/10/20 05:35:26;;;;;;;3.63;2.50;;;13.10;99.90;;;;;;4982808;28;20195;-76
2021/10/20 05:37:52;;;;;;;2.97;2.17;;;13.10;99.90;;;;;;4984244;28;20184;-76
2021/10/20 05:40:19;;;;;;;2.97;2.67;;;13.10;99.90;;;;;;4983861;28;20192;-74
2021/10/20 05:42:45;;;;;;;3.60;2.97;;;13.10;99.90;;;;;;4983299;28;20532;-75
2021/10/20 05:45:11;;;;;;;3.33;2.90;;;13.00;99.90;;;;;;4984048;28;20706;-77
2021/10/20 05:47:36;;;;;;;3.75;2.80;;;13.00;99.90;;;;;;4982726;28;20216;-77
2021/10/20 05:50:03;;;;;;;2.72;2.38;;;13.00;99.90;;;;;;4983796;28;20199;-76
2021/10/20 05:52:28;;;;;;;3.13;2.83;;;13.00;99.90;;;;;;4984077;28;20183;-76
2021/10/20 05:54:54;;;;;;;3.42;2.65;;;13.10;99.90;;;;;;4983982;28;20183;-76
2021/10/20 05:57:21;;;;;;;2.65;2.40;;;13.20;99.90;;;;;;4982595;28;20387;-77
2021/10/20 05:59:47;;;;;;;3.00;2.70;;;13.20;99.90;;;;;;4983152;28;20735;-77
2021/10/20 06:02:14;;;;;;;3.75;2.75;;;13.20;99.90;;;;;;4981114;28;20192;-76
2021/10/20 06:04:40;;;;;;;2.95;2.65;;;13.20;99.90;;;;;;4982871;28;20183;-76
2021/10/20 06:07:06;;;;;;;5.13;2.70;;;13.30;99.90;;;;;;4982431;28;21118;-75
2021/10/20 06:09:33;;;;;;;3.30;3.00;;;13.50;99.90;;;;;;4979692;28;20202;-75
2021/10/20 06:12:00;;;;;;;4.90;3.00;;;13.50;99.90;;;;;;4985907;28;20222;-77
2021/10/20 06:14:26;;;;;;;3.15;2.85;;;13.50;99.90;;;;;;4987493;28;20184;-75
2021/10/20 06:16:52;;;;;;;4.82;2.63;;;13.50;99.90;;;;;;4987973;28;20208;-77
2021/10/20 06:19:17;;;;;;;3.13;2.80;;;13.50;99.90;;;;;;4986698;28;20184;-76
2021/10/20 06:21:43;;;;;;;4.53;2.72;;;13.50;99.90;;;;;;4987985;28;20184;-76
2021/10/20 06:24:09;;;;;;;3.10;2.83;;;13.60;99.90;;;;;;4988613;28;20562;-77
2021/10/20 06:26:34;;;;;;;3.25;2.95;;;13.80;99.90;;;;;;4988061;28;20262;-78
2021/10/20 06:29:00;;;;;;;3.53;2.88;;;13.90;99.90;;;;;;4987072;28;20173;-77
2021/10/20 06:31:26;;;;;;;3.75;3.05;;;13.90;99.90;;;;;;4988252;28;20188;-76
2021/10/20 06:33:51;;;;;;;4.03;3.33;;;14.00;99.90;;;;;;4986293;28;20198;-78
2021/10/20 06:36:29;;;;;;;6.18;2.50;;;14.10;99.90;;;;;;4988892;28;20235;-75
2021/10/20 06:38:54;;;;;;;3.20;2.75;;;14.10;99.90;;;;;;4988271;28;20199;-76
2021/10/20 06:41:20;;;;;;;4.22;2.90;;;14.10;99.90;;;;;;4981314;28;20208;-75
2021/10/20 06:43:46;;;;;;;4.22;3.10;;;14.20;99.90;;;;;;4987488;28;20226;-77
2021/10/20 06:46:12;;;;;;;4.38;3.40;;;14.40;99.90;;;;;;4986799;28;20242;-75
2021/10/20 06:48:38;;;;;;;4.82;3.17;;;14.40;99.90;;;;;;4986214;28;20745;-77
2021/10/20 06:51:05;;;;;;;3.20;2.78;;;14.50;99.90;;;;;;4986357;28;20873;-75
2021/10/20 06:53:31;;;;;;;2.97;2.60;;;14.50;99.90;;;;;;4987153;28;20566;-76
2021/10/20 06:55:56;;;;;;;3.55;2.70;;;14.50;99.90;;;;;;4986551;28;20212;-76
2021/10/20 06:58:22;;;;;;;2.90;2.60;;;14.70;99.90;;;;;;4985436;28;20192;-75
2021/10/20 07:00:49;;;;;;;4.15;2.40;;;14.70;99.90;;;;;;4986317;28;20204;-77
2021/10/20 07:03:15;;;;;;;2.30;2.10;;;14.90;99.90;;;;;;4985211;28;20625;-78
2021/10/20 07:05:40;;;;;;;3.17;2.30;;;15.00;99.90;;;;;;4985350;28;20441;-78
2021/10/20 07:08:06;;;;;;;2.65;2.40;;;15.10;99.90;;;;;;4986563;28;20211;-77
2021/10/20 07:10:31;;;;;;;4.32;2.53;;;15.20;99.90;;;;;;4986124;28;20294;-76
2021/10/20 07:12:57;;;;;;;3.78;2.97;;;15.20;99.90;;;;;;4983644;28;20651;-77
2021/10/20 07:15:23;;;;;;;3.97;2.78;;;15.30;99.90;;;;;;4985001;28;20593;-78
2021/10/20 07:17:48;;;;;;;3.65;3.22;;;15.30;99.90;;;;;;4986863;28;20707;-76
2021/10/20 07:20:14;;;;;;;2.97;2.63;;;15.30;99.90;;;;;;4984880;28;20208;-78
2021/10/20 07:22:40;;;;;;;2.92;2.58;;;15.30;99.90;;;;;;4984912;28;20272;-76
2021/10/20 07:25:11;;;;;;;3.95;2.58;;;15.30;99.90;;;;;;4985900;28;20196;-76
2021/10/20 07:27:37;;;;;;;3.03;2.50;;;15.30;99.90;;;;;;4986040;28;20196;-76
2021/10/20 07:30:04;;;;;;;2.67;2.47;;;15.30;99.90;;;;;;4985690;28;20195;-76
2021/10/20 07:32:30;;;;;;;4.82;3.10;;;15.30;99.90;;;;;;4985711;28;20176;-76
2021/10/20 07:34:55;;;;;;;2.75;2.38;;;15.40;99.90;;;;;;4984962;28;20557;-76
2021/10/20 07:37:21;;;;;;;4.47;2.60;;;15.40;99.90;;;;;;4985108;28;20274;-76
2021/10/20 07:39:47;;;;;;;5.38;3.42;;;15.40;99.90;;;;;;4985785;28;20266;-77
2021/10/20 07:42:12;;;;;;;3.85;2.70;;;15.40;99.90;;;;;;4986414;28;20180;-76
2021/10/20 07:44:38;;;;;;;2.80;2.50;;;15.50;99.90;;;;;;4985852;28;20283;-78
2021/10/20 07:47:03;;;;;;;4.07;2.63;;;15.50;99.90;;;;;;4985076;28;20637;-78
2021/10/20 07:49:29;;;;;;;3.63;3.00;;;15.50;99.90;;;;;;4985314;28;20196;-76
2021/10/20 07:51:58;;;;;;;3.13;2.75;;;15.60;99.90;;;;;;4988024;28;20266;-77
2021/10/20 07:54:26;;;;;;;2.50;2.30;;;15.70;99.90;;;;;;4991772;28;20180;-77
2021/10/20 07:56:53;;;;;;;4.50;2.55;;;15.80;99.90;;;;;;4989575;28;20204;-78
2021/10/20 07:59:20;;;;;;;2.70;2.25;;;15.90;99.90;;;;;;4991787;28;20193;-77
2021/10/20 08:01:47;;;;;;;3.00;2.70;;;16.10;99.90;;;;;;4991978;28;20179;-76
2021/10/20 08:04:13;;;;;;;3.30;2.42;;;16.10;99.90;;;;;;4991368;28;20561;-77
2021/10/20 08:06:39;;;;;;;3.20;2.67;;;16.20;99.90;;;;;;4986242;28;20204;-76
2021/10/20 08:09:05;;;;;;;3.33;2.97;;;16.20;99.90;;;;;;4986015;28;20176;-77
2021/10/20 08:11:30;;;;;;;3.20;2.58;;;16.20;99.90;;;;;;4989303;28;20184;-78
2021/10/20 08:13:56;;;;;;;4.32;2.90;;;16.10;99.90;;;;;;4990077;28;20192;-77
2021/10/20 08:16:22;;;;;;;6.43;4.20;;;16.10;99.90;;;;;;4989948;28;20201;-77
2021/10/20 08:18:48;;;;;;;6.30;3.67;;;16.20;99.90;;;;;;4989575;28;20187;-77
2021/10/20 08:21:14;;;;;;;4.93;3.55;;;16.10;99.90;;;;;;4990326;28;20208;-78
2021/10/20 08:23:41;;;;;;;4.72;3.55;;;16.10;99.90;;;;;;4990836;28;20767;-78
2021/10/20 08:26:08;;;;;;;5.35;4.10;;;16.20;99.90;;;;;;4989856;28;20216;-77
2021/10/20 08:28:34;;;;;;;5.00;3.55;;;16.30;99.90;;;;;;4990823;28;20191;-77
2021/10/20 08:30:59;;;;;;;5.65;3.70;;;16.20;99.90;;;;;;4990053;28;20576;-77
2021/10/20 08:33:25;;;;;;;4.13;3.08;;;16.40;99.90;;;;;;4989679;28;20685;-76
2021/10/20 08:35:51;;;;;;;4.20;3.40;;;16.50;99.90;;;;;;4989240;28;20309;-75
2021/10/20 08:38:17;;;;;;;4.18;3.03;;;16.70;99.90;;;;;;4989734;28;20238;-77
2021/10/20 08:40:46;;;;;;;3.65;3.30;;;16.70;99.90;;;;;;4989813;28;20271;-75
2021/10/20 08:43:15;;;;;;;4.90;3.85;;;16.70;99.90;;;;;;4990126;28;20192;-77
2021/10/20 08:45:41;;;;;;;3.70;3.25;;;16.80;99.90;;;;;;4987807;28;20222;-75
2021/10/20 08:48:06;;;;;;;3.42;3.10;;;16.80;99.90;;;;;;4985551;28;20180;-76
2021/10/20 08:50:34;;;;;;;5.40;3.97;;;16.70;99.90;;;;;;4984594;28;20192;-77
2021/10/20 08:53:01;;;;;;;3.45;3.03;;;16.70;99.90;;;;;;4988808;28;20188;-78
2021/10/20 08:55:27;;;;;;;5.55;3.90;;;16.60;99.90;;;;;;4983257;28;20196;-78
2021/10/20 08:57:54;;;;;;;4.18;3.78;;;16.60;99.90;;;;;;4983560;28;20303;-76
2021/10/20 09:00:20;;;;;;;4.07;3.53;;;16.60;99.90;;;;;;4982497;28;20290;-78
2021/10/20 09:02:47;;;;;;;3.80;3.13;;;16.70;99.90;;;;;;4982701;28;20279;-75
2021/10/20 09:05:25;;;;;;;3.03;2.72;;;16.70;99.90;;;;;;4982576;28;20560;-79
2021/10/20 09:07:55;;;;;;;3.22;2.80;;;16.70;99.90;;;;;;4982815;28;20211;-78
2021/10/20 09:10:27;;;;;;;3.22;2.72;;;16.70;99.90;;;;;;4983114;28;20688;-78
2021/10/20 09:12:56;;;;;;;4.82;2.80;;;16.70;99.90;;;;;;4984640;28;20258;-78
2021/10/20 09:15:27;;;;;;;3.58;3.13;;;16.80;99.90;;;;;;4983482;28;20182;-78
2021/10/20 09:18:03;;;;;;;4.20;2.67;;;16.80;99.90;;;;;;4983378;28;20180;-78
2021/10/20 09:20:41;;;;;;;2.88;2.53;;;16.80;99.90;;;;;;4983029;28;20215;-78
2021/10/20 09:23:11;;;;;;;2.97;2.35;;;16.80;99.90;;;;;;4984014;28;20176;-78
2021/10/20 09:25:41;;;;;;;3.75;2.53;;;16.90;99.90;;;;;;4982165;28;20254;-80
2021/10/20 09:28:09;;;;;;;3.88;2.55;;;16.90;99.90;;;;;;4979001;28;20654;-76
2021/10/20 09:30:39;;;;;;;2.80;2.50;;;17.00;99.90;;;;;;4982365;28;20180;-77
2021/10/20 09:33:09;;;;;;;3.20;2.45;;;17.00;99.90;;;;;;4981790;28;20192;-78
2021/10/20 09:35:35;;;;;;;2.88;2.58;;;17.10;99.90;;;;;;4984212;28;20184;-77
2021/10/20 09:38:03;;;;;;;2.60;2.40;;;17.20;99.90;;;;;;4983115;28;20180;-78
2021/10/20 09:40:48;;;;;;;3.47;2.70;;;17.20;99.90;;;;;;4998462;28;20199;-79
2021/10/20 09:43:20;;;;;;;3.13;2.35;;;17.20;99.90;;;;;;4985966;28;20180;-77
2021/10/20 09:45:47;;;;;;;3.58;2.95;;;17.30;99.90;;;;;;4985892;28;20212;-78
2021/10/20 09:48:16;;;;;;;3.83;2.80;;;17.40;99.90;;;;;;4984811;28;20195;-79
2021/10/20 09:50:58;;;;;;;3.55;3.05;;;17.50;99.90;;;;;;4986312;28;20251;-78
2021/10/20 09:53:26;;;;;;;6.38;3.30;;;17.60;99.90;;;;;;4986284;28;20978;-77
2021/10/20 09:55:52;;;;;;;5.07;3.08;;;17.70;99.90;;;;;;4986369;28;20215;-78
2021/10/20 09:58:17;;;;;;;2.97;2.65;;;17.80;99.90;;;;;;4984133;28;20196;-78
2021/10/20 10:00:44;;;;;;;4.40;3.00;;;17.90;99.90;;;;;;4980893;28;20318;-79
2021/10/20 10:03:11;;;;;;;5.13;3.63;;;17.80;99.90;;;;;;4983393;28;20569;-77
2021/10/20 10:05:38;;;;;;;3.38;2.65;;;17.80;99.90;;;;;;4982384;28;20181;-77
2021/10/20 10:08:04;;;;;;;4.65;3.05;;;17.90;99.90;;;;;;4984245;28;20184;-77
2021/10/20 10:10:31;;;;;;;3.35;2.88;;;18.00;99.90;;;;;;4983863;28;20247;-77
2021/10/20 10:13:02;;;;;;;3.30;2.22;;;18.20;99.90;;;;;;4981702;28;20539;-78
2021/10/20 10:15:29;;;;;;;3.15;2.40;;;18.40;99.90;;;;;;4983778;28;20269;-78
2021/10/20 10:17:56;;;;;;;3.28;2.80;;;18.50;99.90;;;;;;4982620;28;20188;-78
2021/10/20 10:20:26;;;;;;;3.17;2.47;;;18.70;99.90;;;;;;4985845;28;20200;-78
2021/10/20 10:22:55;;;;;;;2.85;2.33;;;18.60;99.90;;;;;;4986303;28;20177;-78
2021/10/20 10:25:39;;;;;;;2.42;2.17;;;18.50;99.90;;;;;;4988217;28;20271;-78
2021/10/20 10:28:17;;;;;;;2.50;2.30;;;18.50;99.90;;;;;;4988877;28;20602;-78
2021/10/20 10:30:57;;;;;;;2.50;2.20;;;18.30;99.90;;;;;;5005334;28;20184;-77
2021/10/20 10:33:27;;;;;;;2.72;2.20;;;18.20;99.90;;;;;;4990846;28;20326;-78
2021/10/20 10:36:09;;;;;;;2.40;2.20;;;18.20;99.90;;;;;;4990474;28;20211;-78
2021/10/20 10:38:39;;;;;;;2.85;2.33;;;18.10;99.90;;;;;;4991995;28;20188;-78
2021/10/20 10:41:30;;;;;;;2.85;2.55;;;18.10;99.90;;;;;;4991178;28;20345;-78
2021/10/20 10:44:08;;;;;;;2.60;2.40;;;18.00;99.90;;;;;;4990981;28;20215;-78
2021/10/20 10:47:03;;;;;;;3.28;2.25;;;18.00;99.90;;;;;;4990054;28;20593;-76
2021/10/20 10:49:34;;;;;;;3.25;2.53;;;18.00;99.90;;;;;;4984635;28;20844;-78
2021/10/20 10:52:18;;;;;;;2.67;2.47;;;18.00;99.90;;;;;;4990050;28;20192;-79
2021/10/20 10:54:59;;;;;;;3.20;2.65;;;18.10;99.90;;;;;;5010036;28;20212;-77
2021/10/20 10:57:41;;;;;;;3.80;2.65;;;18.10;99.90;;;;;;4988802;28;20222;-79
2021/10/20 11:00:18;;;;;;;5.78;2.60;;;18.20;99.90;;;;;;4994519;28;20212;-80
2021/10/20 11:02:50;;;;;;;8.48;2.78;;;18.60;99.90;;;;;;4995599;28;20180;-80
2021/10/20 11:05:22;;;;;;;2.58;2.38;;;18.80;99.90;;;;;;5010214;28;20184;-82
2021/10/20 11:07:49;;;;;;;4.45;2.70;;;18.90;99.90;;;;;;4994061;28;20188;-80
2021/10/20 11:10:17;;;;;;;3.55;3.00;;;18.90;99.90;;;;;;4993978;28;20219;-79
2021/10/20 11:12:47;;;;;;;5.57;3.33;;;18.70;99.90;;;;;;4989445;28;20559;-78
2021/10/20 11:15:14;;;;;;;4.88;3.10;;;18.70;99.90;;;;;;4989029;28;20195;-79
2021/10/20 11:17:40;;;;;;;4.82;2.92;;;18.50;99.90;;;;;;4990662;28;20196;-78
2021/10/20 11:20:13;;;;;;;2.95;2.58;;;18.50;99.90;;;;;;4990019;28;20932;-78
2021/10/20 11:22:39;;;;;;;3.55;2.63;;;18.60;99.90;;;;;;4987279;28;20180;-78
2021/10/20 11:25:09;;;;;;;4.00;2.60;;;18.60;99.90;;;;;;4988211;28;20187;-79
2021/10/20 11:27:37;;;;;;;4.00;3.03;;;18.60;99.90;;;;;;4987385;28;20628;-78
2021/10/20 11:30:04;;;;;;;3.20;2.90;;;18.70;99.90;;;;;;4988144;28;20256;-80
2021/10/20 11:32:29;;;;;;;3.10;2.80;;;18.60;99.90;;;;;;4988450;28;20198;-78
2021/10/20 11:34:55;;;;;;;3.05;2.58;;;18.60;99.90;;;;;;4987395;28;20263;-79
2021/10/20 11:37:23;;;;;;;2.90;2.58;;;18.60;99.90;;;;;;4988403;28;20291;-78
2021/10/20 11:40:07;;;;;;;3.58;2.47;;;18.70;99.90;;;;;;4985582;28;20275;-79
2021/10/20 11:42:33;;;;;;;4.25;2.75;;;18.70;99.90;;;;;;4985196;28;20187;-80
2021/10/20 11:45:03;;;;;;;3.72;3.28;;;18.60;99.90;;;;;;4982896;28;20207;-79
2021/10/20 11:47:30;;;;;;;3.67;2.65;;;18.60;99.90;;;;;;4981756;28;20626;-81
2021/10/20 11:49:56;;;;;;;5.72;2.95;;;18.70;99.90;;;;;;4987099;28;20203;-78
2021/10/20 11:52:24;;;;;;;3.15;2.80;;;18.70;99.90;;;;;;4985264;28;20283;-78
2021/10/20 11:54:53;;;;;;;3.08;2.78;;;18.60;99.90;;;;;;4985419;28;20230;-76
2021/10/20 11:57:19;;;;;;;5.45;2.95;;;18.60;99.90;;;;;;4984440;28;20623;-78
2021/10/20 11:59:46;;;;;;;3.15;2.85;;;18.60;99.90;;;;;;4984749;28;20243;-79
2021/10/20 12:02:15;;;;;;;3.10;2.80;;;18.60;99.90;;;;;;4985339;28;20176;-82
2021/10/20 12:04:42;;;;;;;3.20;2.90;;;18.50;99.90;;;;;;4985449;28;20180;-76
2021/10/20 12:07:11;;;;;;;4.50;2.75;;;18.50;99.90;;;;;;4986475;28;20204;-81
2021/10/20 12:09:46;;;;;;;5.20;3.55;;;18.50;99.90;;;;;;4986969;28;20235;-76
2021/10/20 12:12:12;;;;;;;3.60;2.90;;;18.60;99.90;;;;;;4986087;28;20661;-79
2021/10/20 12:14:40;;;;;;;3.85;2.67;;;18.70;99.90;;;;;;4984875;28;20290;-75
2021/10/20 12:17:07;;;;;;;3.58;2.70;;;18.60;99.90;;;;;;4984720;28;20212;-80
2021/10/20 12:19:38;;;;;;;4.47;2.80;;;18.70;99.90;;;;;;4985216;28;20463;-79
2021/10/20 12:22:10;;;;;;;3.20;2.90;;;18.90;99.90;;;;;;4986268;28;20250;-83
2021/10/20 12:24:39;;;;;;;4.20;2.83;;;19.10;99.90;;;;;;4985643;28;20184;-77
2021/10/20 12:27:06;;;;;;;3.65;2.88;;;19.20;99.90;;;;;;4985505;28;20760;-76
2021/10/20 12:29:37;;;;;;;4.57;3.10;;;19.20;99.90;;;;;;4985935;28;20191;-76
2021/10/20 12:32:07;;;;;;;3.28;2.90;;;19.10;99.90;;;;;;4984590;28;20268;-76
2021/10/20 12:34:32;;;;;;;3.15;2.70;;;19.10;99.90;;;;;;4984901;28;20259;-76
2021/10/20 12:36:58;;;;;;;3.33;2.58;;;19.30;99.90;;;;;;4982609;28;20302;-76
2021/10/20 12:39:25;;;;;;;3.80;2.63;;;19.40;99.90;;;;;;4982913;28;20651;-76
2021/10/20 12:41:51;;;;;;;3.58;2.90;;;19.60;99.90;;;;;;4983345;28;20654;-76
2021/10/20 12:44:17;;;;;;;6.38;3.17;;;19.90;99.90;;;;;;4984669;28;20227;-77
2021/10/20 12:46:43;;;;;;;6.22;3.05;;;20.10;99.90;;;;;;4983936;28;20218;-76
2021/10/20 12:49:10;;;;;;;4.00;3.08;;;20.00;99.90;;;;;;4984940;28;20545;-76